<?xml version="1.0" encoding="UTF-8" standalone="no" ?>
<gpx xmlns="http://www.topografix.com/GPX/1/1" xmlns:xsi="http://www.w3.org/2001/XMLSchema-instance" xsi:schemaLocation="http://www.topografix.com/GPX/1/1 http://www.topografix.com/GPX/1/1/gpx.xsd" version="1.1" creator="VisuGPX - https://www.visugpx.com">
  <metadata>
    <name>Randonnée du 16/10/2019 à 10:15</name>
    <desc><![CDATA[
]]></desc>
  </metadata>
  <trk>
    <name><![CDATA[Randonnée du 16/10/2019 à 10:15]]></name>
    <trkseg>
      <trkpt lat="43.70458" lon="2.13986">
        <ele>321</ele>
        <time>2019-10-16T10:15:06+02:00</time>
      </trkpt>
      <trkpt lat="43.70437" lon="2.14011">
        <ele>327</ele>
        <time>2019-10-16T10:23:58+02:00</time>
      </trkpt>
      <trkpt lat="43.70409" lon="2.14012">
        <ele>326</ele>
        <time>2019-10-16T10:24:25+02:00</time>
      </trkpt>
      <trkpt lat="43.70382" lon="2.14017">
        <ele>326</ele>
        <time>2019-10-16T10:25:05+02:00</time>
      </trkpt>
      <trkpt lat="43.70354" lon="2.14028">
        <ele>326</ele>
        <time>2019-10-16T10:25:44+02:00</time>
      </trkpt>
      <trkpt lat="43.7033" lon="2.14046">
        <ele>325</ele>
        <time>2019-10-16T10:26:20+02:00</time>
      </trkpt>
      <trkpt lat="43.70307" lon="2.14066">
        <ele>325</ele>
        <time>2019-10-16T10:26:48+02:00</time>
      </trkpt>
      <trkpt lat="43.70289" lon="2.14096">
        <ele>324</ele>
        <time>2019-10-16T10:27:16+02:00</time>
      </trkpt>
      <trkpt lat="43.70277" lon="2.14129">
        <ele>324</ele>
        <time>2019-10-16T10:27:40+02:00</time>
      </trkpt>
      <trkpt lat="43.70257" lon="2.14157">
        <ele>324</ele>
        <time>2019-10-16T10:28:02+02:00</time>
      </trkpt>
      <trkpt lat="43.70242" lon="2.1419">
        <ele>323</ele>
        <time>2019-10-16T10:28:30+02:00</time>
      </trkpt>
      <trkpt lat="43.70235" lon="2.14227">
        <ele>322</ele>
        <time>2019-10-16T10:28:55+02:00</time>
      </trkpt>
      <trkpt lat="43.70219" lon="2.14257">
        <ele>321</ele>
        <time>2019-10-16T10:29:19+02:00</time>
      </trkpt>
      <trkpt lat="43.70192" lon="2.14263">
        <ele>321</ele>
        <time>2019-10-16T10:29:42+02:00</time>
      </trkpt>
      <trkpt lat="43.70165" lon="2.14275">
        <ele>320</ele>
        <time>2019-10-16T10:30:07+02:00</time>
      </trkpt>
      <trkpt lat="43.7015" lon="2.14308">
        <ele>319</ele>
        <time>2019-10-16T10:30:41+02:00</time>
      </trkpt>
      <trkpt lat="43.70152" lon="2.14346">
        <ele>317</ele>
        <time>2019-10-16T10:31:07+02:00</time>
      </trkpt>
      <trkpt lat="43.70168" lon="2.14376">
        <ele>316</ele>
        <time>2019-10-16T10:31:26+02:00</time>
      </trkpt>
      <trkpt lat="43.70176" lon="2.14412">
        <ele>314</ele>
        <time>2019-10-16T10:31:50+02:00</time>
      </trkpt>
      <trkpt lat="43.70188" lon="2.14446">
        <ele>313</ele>
        <time>2019-10-16T10:32:13+02:00</time>
      </trkpt>
      <trkpt lat="43.70196" lon="2.14482">
        <ele>311</ele>
        <time>2019-10-16T10:32:37+02:00</time>
      </trkpt>
      <trkpt lat="43.70204" lon="2.14518">
        <ele>310</ele>
        <time>2019-10-16T10:32:59+02:00</time>
      </trkpt>
      <trkpt lat="43.70211" lon="2.14555">
        <ele>309</ele>
        <time>2019-10-16T10:33:20+02:00</time>
      </trkpt>
      <trkpt lat="43.70218" lon="2.14592">
        <ele>308</ele>
        <time>2019-10-16T10:33:43+02:00</time>
      </trkpt>
      <trkpt lat="43.70224" lon="2.14629">
        <ele>306</ele>
        <time>2019-10-16T10:34:05+02:00</time>
      </trkpt>
      <trkpt lat="43.70234" lon="2.14665">
        <ele>305</ele>
        <time>2019-10-16T10:34:28+02:00</time>
      </trkpt>
      <trkpt lat="43.70246" lon="2.14699">
        <ele>304</ele>
        <time>2019-10-16T10:34:50+02:00</time>
      </trkpt>
      <trkpt lat="43.70257" lon="2.14736">
        <ele>303</ele>
        <time>2019-10-16T10:35:17+02:00</time>
      </trkpt>
      <trkpt lat="43.70275" lon="2.14766">
        <ele>300</ele>
        <time>2019-10-16T10:35:41+02:00</time>
      </trkpt>
      <trkpt lat="43.70295" lon="2.14793">
        <ele>299</ele>
        <time>2019-10-16T10:36:04+02:00</time>
      </trkpt>
      <trkpt lat="43.70317" lon="2.14815">
        <ele>297</ele>
        <time>2019-10-16T10:36:26+02:00</time>
      </trkpt>
      <trkpt lat="43.70339" lon="2.1484">
        <ele>296</ele>
        <time>2019-10-16T10:36:49+02:00</time>
      </trkpt>
      <trkpt lat="43.7036" lon="2.14865">
        <ele>295</ele>
        <time>2019-10-16T10:37:13+02:00</time>
      </trkpt>
      <trkpt lat="43.70383" lon="2.14887">
        <ele>295</ele>
        <time>2019-10-16T10:37:35+02:00</time>
      </trkpt>
      <trkpt lat="43.70404" lon="2.14911">
        <ele>294</ele>
        <time>2019-10-16T10:37:56+02:00</time>
      </trkpt>
      <trkpt lat="43.70424" lon="2.14938">
        <ele>293</ele>
        <time>2019-10-16T10:38:17+02:00</time>
      </trkpt>
      <trkpt lat="43.70444" lon="2.14961">
        <ele>293</ele>
        <time>2019-10-16T10:38:39+02:00</time>
      </trkpt>
      <trkpt lat="43.70462" lon="2.14991">
        <ele>292</ele>
        <time>2019-10-16T10:39:03+02:00</time>
      </trkpt>
      <trkpt lat="43.7048" lon="2.1502">
        <ele>292</ele>
        <time>2019-10-16T10:39:25+02:00</time>
      </trkpt>
      <trkpt lat="43.70496" lon="2.15051">
        <ele>291</ele>
        <time>2019-10-16T10:39:47+02:00</time>
      </trkpt>
      <trkpt lat="43.7051" lon="2.15084">
        <ele>290</ele>
        <time>2019-10-16T10:40:12+02:00</time>
      </trkpt>
      <trkpt lat="43.70525" lon="2.15115">
        <ele>290</ele>
        <time>2019-10-16T10:40:36+02:00</time>
      </trkpt>
      <trkpt lat="43.70543" lon="2.15146">
        <ele>289</ele>
        <time>2019-10-16T10:40:58+02:00</time>
      </trkpt>
      <trkpt lat="43.70559" lon="2.15177">
        <ele>289</ele>
        <time>2019-10-16T10:41:19+02:00</time>
      </trkpt>
      <trkpt lat="43.70576" lon="2.15208">
        <ele>288</ele>
        <time>2019-10-16T10:41:42+02:00</time>
      </trkpt>
      <trkpt lat="43.70591" lon="2.15239">
        <ele>288</ele>
        <time>2019-10-16T10:42:02+02:00</time>
      </trkpt>
      <trkpt lat="43.70607" lon="2.15271">
        <ele>287</ele>
        <time>2019-10-16T10:42:25+02:00</time>
      </trkpt>
      <trkpt lat="43.70622" lon="2.15303">
        <ele>287</ele>
        <time>2019-10-16T10:42:50+02:00</time>
      </trkpt>
      <trkpt lat="43.70634" lon="2.15338">
        <ele>287</ele>
        <time>2019-10-16T10:43:12+02:00</time>
      </trkpt>
      <trkpt lat="43.70651" lon="2.15368">
        <ele>287</ele>
        <time>2019-10-16T10:43:32+02:00</time>
      </trkpt>
      <trkpt lat="43.70668" lon="2.15399">
        <ele>286</ele>
        <time>2019-10-16T10:43:55+02:00</time>
      </trkpt>
      <trkpt lat="43.70683" lon="2.15432">
        <ele>286</ele>
        <time>2019-10-16T10:44:16+02:00</time>
      </trkpt>
      <trkpt lat="43.70698" lon="2.15464">
        <ele>286</ele>
        <time>2019-10-16T10:44:40+02:00</time>
      </trkpt>
      <trkpt lat="43.70714" lon="2.15496">
        <ele>286</ele>
        <time>2019-10-16T10:45:04+02:00</time>
      </trkpt>
      <trkpt lat="43.70726" lon="2.1553">
        <ele>286</ele>
        <time>2019-10-16T10:45:26+02:00</time>
      </trkpt>
      <trkpt lat="43.70744" lon="2.1556">
        <ele>286</ele>
        <time>2019-10-16T10:45:50+02:00</time>
      </trkpt>
      <trkpt lat="43.70761" lon="2.15588">
        <ele>286</ele>
        <time>2019-10-16T10:46:12+02:00</time>
      </trkpt>
      <trkpt lat="43.70773" lon="2.15622">
        <ele>286</ele>
        <time>2019-10-16T10:46:36+02:00</time>
      </trkpt>
      <trkpt lat="43.70788" lon="2.15656">
        <ele>286</ele>
        <time>2019-10-16T10:46:56+02:00</time>
      </trkpt>
      <trkpt lat="43.70793" lon="2.15693">
        <ele>286</ele>
        <time>2019-10-16T10:47:19+02:00</time>
      </trkpt>
      <trkpt lat="43.708" lon="2.1573">
        <ele>285</ele>
        <time>2019-10-16T10:47:42+02:00</time>
      </trkpt>
      <trkpt lat="43.70803" lon="2.15768">
        <ele>286</ele>
        <time>2019-10-16T10:48:03+02:00</time>
      </trkpt>
      <trkpt lat="43.70805" lon="2.15805">
        <ele>286</ele>
        <time>2019-10-16T10:48:25+02:00</time>
      </trkpt>
      <trkpt lat="43.70805" lon="2.15844">
        <ele>286</ele>
        <time>2019-10-16T10:48:48+02:00</time>
      </trkpt>
      <trkpt lat="43.70798" lon="2.15881">
        <ele>286</ele>
        <time>2019-10-16T10:49:11+02:00</time>
      </trkpt>
      <trkpt lat="43.70789" lon="2.15919">
        <ele>286</ele>
        <time>2019-10-16T10:49:34+02:00</time>
      </trkpt>
      <trkpt lat="43.70778" lon="2.15954">
        <ele>286</ele>
        <time>2019-10-16T10:49:56+02:00</time>
      </trkpt>
      <trkpt lat="43.70764" lon="2.15986">
        <ele>286</ele>
        <time>2019-10-16T10:50:18+02:00</time>
      </trkpt>
      <trkpt lat="43.70752" lon="2.1602">
        <ele>286</ele>
        <time>2019-10-16T10:50:40+02:00</time>
      </trkpt>
      <trkpt lat="43.70741" lon="2.16055">
        <ele>286</ele>
        <time>2019-10-16T10:51:05+02:00</time>
      </trkpt>
      <trkpt lat="43.70725" lon="2.16084">
        <ele>286</ele>
        <time>2019-10-16T10:51:26+02:00</time>
      </trkpt>
      <trkpt lat="43.70741" lon="2.16114">
        <ele>287</ele>
        <time>2019-10-16T10:55:52+02:00</time>
      </trkpt>
      <trkpt lat="43.70758" lon="2.16143">
        <ele>288</ele>
        <time>2019-10-16T10:56:26+02:00</time>
      </trkpt>
      <trkpt lat="43.70775" lon="2.16173">
        <ele>288</ele>
        <time>2019-10-16T10:56:47+02:00</time>
      </trkpt>
      <trkpt lat="43.70798" lon="2.16196">
        <ele>289</ele>
        <time>2019-10-16T10:57:15+02:00</time>
      </trkpt>
      <trkpt lat="43.70823" lon="2.16209">
        <ele>289</ele>
        <time>2019-10-16T10:57:47+02:00</time>
      </trkpt>
      <trkpt lat="43.7085" lon="2.16219">
        <ele>290</ele>
        <time>2019-10-16T10:58:18+02:00</time>
      </trkpt>
      <trkpt lat="43.70877" lon="2.16228">
        <ele>291</ele>
        <time>2019-10-16T10:58:51+02:00</time>
      </trkpt>
      <trkpt lat="43.70904" lon="2.16234">
        <ele>292</ele>
        <time>2019-10-16T10:59:22+02:00</time>
      </trkpt>
      <trkpt lat="43.70932" lon="2.16241">
        <ele>293</ele>
        <time>2019-10-16T10:59:54+02:00</time>
      </trkpt>
      <trkpt lat="43.70958" lon="2.16248">
        <ele>293</ele>
        <time>2019-10-16T11:00:20+02:00</time>
      </trkpt>
      <trkpt lat="43.70985" lon="2.16259">
        <ele>294</ele>
        <time>2019-10-16T11:00:51+02:00</time>
      </trkpt>
      <trkpt lat="43.71012" lon="2.16265">
        <ele>294</ele>
        <time>2019-10-16T11:01:19+02:00</time>
      </trkpt>
      <trkpt lat="43.7104" lon="2.16264">
        <ele>295</ele>
        <time>2019-10-16T11:01:47+02:00</time>
      </trkpt>
      <trkpt lat="43.71067" lon="2.16267">
        <ele>295</ele>
        <time>2019-10-16T11:02:15+02:00</time>
      </trkpt>
      <trkpt lat="43.71096" lon="2.16263">
        <ele>296</ele>
        <time>2019-10-16T11:02:43+02:00</time>
      </trkpt>
      <trkpt lat="43.71115" lon="2.16292">
        <ele>296</ele>
        <time>2019-10-16T11:03:05+02:00</time>
      </trkpt>
      <trkpt lat="43.71131" lon="2.16322">
        <ele>297</ele>
        <time>2019-10-16T11:03:28+02:00</time>
      </trkpt>
      <trkpt lat="43.71151" lon="2.16347">
        <ele>298</ele>
        <time>2019-10-16T11:03:51+02:00</time>
      </trkpt>
      <trkpt lat="43.71178" lon="2.16352">
        <ele>298</ele>
        <time>2019-10-16T11:04:19+02:00</time>
      </trkpt>
      <trkpt lat="43.71204" lon="2.16337">
        <ele>299</ele>
        <time>2019-10-16T11:04:49+02:00</time>
      </trkpt>
      <trkpt lat="43.71231" lon="2.16334">
        <ele>302</ele>
        <time>2019-10-16T11:06:12+02:00</time>
      </trkpt>
      <trkpt lat="43.71259" lon="2.16328">
        <ele>303</ele>
        <time>2019-10-16T11:06:50+02:00</time>
      </trkpt>
      <trkpt lat="43.71284" lon="2.16342">
        <ele>304</ele>
        <time>2019-10-16T11:07:14+02:00</time>
      </trkpt>
      <trkpt lat="43.71311" lon="2.16352">
        <ele>306</ele>
        <time>2019-10-16T11:07:47+02:00</time>
      </trkpt>
      <trkpt lat="43.71333" lon="2.16328">
        <ele>307</ele>
        <time>2019-10-16T11:08:18+02:00</time>
      </trkpt>
      <trkpt lat="43.71322" lon="2.16295">
        <ele>309</ele>
        <time>2019-10-16T11:09:53+02:00</time>
      </trkpt>
      <trkpt lat="43.71317" lon="2.16258">
        <ele>311</ele>
        <time>2019-10-16T11:10:48+02:00</time>
      </trkpt>
      <trkpt lat="43.71307" lon="2.16223">
        <ele>312</ele>
        <time>2019-10-16T11:11:45+02:00</time>
      </trkpt>
      <trkpt lat="43.71286" lon="2.16199">
        <ele>313</ele>
        <time>2019-10-16T11:12:36+02:00</time>
      </trkpt>
      <trkpt lat="43.71289" lon="2.16158">
        <ele>320</ele>
        <time>2019-10-16T11:14:07+02:00</time>
      </trkpt>
      <trkpt lat="43.71293" lon="2.16121">
        <ele>332</ele>
        <time>2019-10-16T11:15:38+02:00</time>
      </trkpt>
      <trkpt lat="43.71319" lon="2.1611">
        <ele>347</ele>
        <time>2019-10-16T11:16:40+02:00</time>
      </trkpt>
      <trkpt lat="43.71329" lon="2.16074">
        <ele>363</ele>
        <time>2019-10-16T11:18:14+02:00</time>
      </trkpt>
      <trkpt lat="43.71336" lon="2.16038">
        <ele>368</ele>
        <time>2019-10-16T11:18:41+02:00</time>
      </trkpt>
      <trkpt lat="43.7135" lon="2.16005">
        <ele>374</ele>
        <time>2019-10-16T11:19:17+02:00</time>
      </trkpt>
      <trkpt lat="43.71363" lon="2.15972">
        <ele>383</ele>
        <time>2019-10-16T11:22:26+02:00</time>
      </trkpt>
      <trkpt lat="43.71382" lon="2.15945">
        <ele>388</ele>
        <time>2019-10-16T11:23:37+02:00</time>
      </trkpt>
      <trkpt lat="43.71398" lon="2.15915">
        <ele>390</ele>
        <time>2019-10-16T11:24:33+02:00</time>
      </trkpt>
      <trkpt lat="43.71415" lon="2.15884">
        <ele>390</ele>
        <time>2019-10-16T11:25:12+02:00</time>
      </trkpt>
      <trkpt lat="43.71432" lon="2.15855">
        <ele>391</ele>
        <time>2019-10-16T11:25:37+02:00</time>
      </trkpt>
      <trkpt lat="43.71448" lon="2.15824">
        <ele>391</ele>
        <time>2019-10-16T11:26:04+02:00</time>
      </trkpt>
      <trkpt lat="43.71465" lon="2.15795">
        <ele>391</ele>
        <time>2019-10-16T11:26:31+02:00</time>
      </trkpt>
      <trkpt lat="43.7148" lon="2.15764">
        <ele>390</ele>
        <time>2019-10-16T11:26:57+02:00</time>
      </trkpt>
      <trkpt lat="43.71473" lon="2.15728">
        <ele>390</ele>
        <time>2019-10-16T11:27:23+02:00</time>
      </trkpt>
      <trkpt lat="43.71459" lon="2.15694">
        <ele>390</ele>
        <time>2019-10-16T11:27:48+02:00</time>
      </trkpt>
      <trkpt lat="43.71444" lon="2.15662">
        <ele>390</ele>
        <time>2019-10-16T11:28:12+02:00</time>
      </trkpt>
      <trkpt lat="43.71419" lon="2.15678">
        <ele>389</ele>
        <time>2019-10-16T11:28:41+02:00</time>
      </trkpt>
      <trkpt lat="43.714" lon="2.15704">
        <ele>389</ele>
        <time>2019-10-16T11:29:03+02:00</time>
      </trkpt>
      <trkpt lat="43.71378" lon="2.15679">
        <ele>389</ele>
        <time>2019-10-16T11:29:29+02:00</time>
      </trkpt>
      <trkpt lat="43.71368" lon="2.15643">
        <ele>389</ele>
        <time>2019-10-16T11:29:52+02:00</time>
      </trkpt>
      <trkpt lat="43.71363" lon="2.15606">
        <ele>388</ele>
        <time>2019-10-16T11:30:15+02:00</time>
      </trkpt>
      <trkpt lat="43.71355" lon="2.1557">
        <ele>388</ele>
        <time>2019-10-16T11:30:40+02:00</time>
      </trkpt>
      <trkpt lat="43.71351" lon="2.15532">
        <ele>388</ele>
        <time>2019-10-16T11:31:14+02:00</time>
      </trkpt>
      <trkpt lat="43.71341" lon="2.15496">
        <ele>387</ele>
        <time>2019-10-16T11:31:43+02:00</time>
      </trkpt>
      <trkpt lat="43.71328" lon="2.15463">
        <ele>387</ele>
        <time>2019-10-16T11:32:17+02:00</time>
      </trkpt>
      <trkpt lat="43.71314" lon="2.1543">
        <ele>387</ele>
        <time>2019-10-16T11:33:02+02:00</time>
      </trkpt>
      <trkpt lat="43.71304" lon="2.15393">
        <ele>386</ele>
        <time>2019-10-16T11:34:16+02:00</time>
      </trkpt>
      <trkpt lat="43.7128" lon="2.15378">
        <ele>386</ele>
        <time>2019-10-16T11:34:58+02:00</time>
      </trkpt>
      <trkpt lat="43.71257" lon="2.15356">
        <ele>386</ele>
        <time>2019-10-16T11:35:29+02:00</time>
      </trkpt>
      <trkpt lat="43.71241" lon="2.15324">
        <ele>385</ele>
        <time>2019-10-16T11:35:55+02:00</time>
      </trkpt>
      <trkpt lat="43.71229" lon="2.15291">
        <ele>385</ele>
        <time>2019-10-16T11:36:18+02:00</time>
      </trkpt>
      <trkpt lat="43.71229" lon="2.15252">
        <ele>385</ele>
        <time>2019-10-16T11:36:44+02:00</time>
      </trkpt>
      <trkpt lat="43.71234" lon="2.15215">
        <ele>385</ele>
        <time>2019-10-16T11:37:08+02:00</time>
      </trkpt>
      <trkpt lat="43.71236" lon="2.15178">
        <ele>385</ele>
        <time>2019-10-16T11:37:36+02:00</time>
      </trkpt>
      <trkpt lat="43.71234" lon="2.1514">
        <ele>385</ele>
        <time>2019-10-16T11:38:12+02:00</time>
      </trkpt>
      <trkpt lat="43.7124" lon="2.15103">
        <ele>385</ele>
        <time>2019-10-16T11:38:45+02:00</time>
      </trkpt>
      <trkpt lat="43.71245" lon="2.15066">
        <ele>385</ele>
        <time>2019-10-16T11:39:16+02:00</time>
      </trkpt>
      <trkpt lat="43.71239" lon="2.1503">
        <ele>385</ele>
        <time>2019-10-16T11:39:43+02:00</time>
      </trkpt>
      <trkpt lat="43.71224" lon="2.14998">
        <ele>386</ele>
        <time>2019-10-16T11:40:13+02:00</time>
      </trkpt>
      <trkpt lat="43.71216" lon="2.14961">
        <ele>386</ele>
        <time>2019-10-16T11:40:43+02:00</time>
      </trkpt>
      <trkpt lat="43.71214" lon="2.14923">
        <ele>386</ele>
        <time>2019-10-16T11:41:10+02:00</time>
      </trkpt>
      <trkpt lat="43.71215" lon="2.14885">
        <ele>386</ele>
        <time>2019-10-16T11:41:33+02:00</time>
      </trkpt>
      <trkpt lat="43.71217" lon="2.14847">
        <ele>387</ele>
        <time>2019-10-16T11:42:02+02:00</time>
      </trkpt>
      <trkpt lat="43.71218" lon="2.14809">
        <ele>387</ele>
        <time>2019-10-16T11:42:31+02:00</time>
      </trkpt>
      <trkpt lat="43.71223" lon="2.14772">
        <ele>388</ele>
        <time>2019-10-16T11:43:03+02:00</time>
      </trkpt>
      <trkpt lat="43.71229" lon="2.14735">
        <ele>388</ele>
        <time>2019-10-16T11:43:27+02:00</time>
      </trkpt>
      <trkpt lat="43.71234" lon="2.14698">
        <ele>388</ele>
        <time>2019-10-16T11:45:27+02:00</time>
      </trkpt>
      <trkpt lat="43.71245" lon="2.14663">
        <ele>389</ele>
        <time>2019-10-16T11:45:55+02:00</time>
      </trkpt>
      <trkpt lat="43.71255" lon="2.14628">
        <ele>389</ele>
        <time>2019-10-16T11:46:18+02:00</time>
      </trkpt>
      <trkpt lat="43.71266" lon="2.14593">
        <ele>389</ele>
        <time>2019-10-16T11:46:43+02:00</time>
      </trkpt>
      <trkpt lat="43.71278" lon="2.14559">
        <ele>389</ele>
        <time>2019-10-16T11:47:06+02:00</time>
      </trkpt>
      <trkpt lat="43.71288" lon="2.14522">
        <ele>389</ele>
        <time>2019-10-16T11:47:26+02:00</time>
      </trkpt>
      <trkpt lat="43.71292" lon="2.14485">
        <ele>389</ele>
        <time>2019-10-16T11:47:52+02:00</time>
      </trkpt>
      <trkpt lat="43.71291" lon="2.14447">
        <ele>390</ele>
        <time>2019-10-16T11:48:16+02:00</time>
      </trkpt>
      <trkpt lat="43.71291" lon="2.14409">
        <ele>390</ele>
        <time>2019-10-16T11:48:38+02:00</time>
      </trkpt>
      <trkpt lat="43.7129" lon="2.14371">
        <ele>390</ele>
        <time>2019-10-16T11:48:59+02:00</time>
      </trkpt>
      <trkpt lat="43.71289" lon="2.14333">
        <ele>390</ele>
        <time>2019-10-16T11:49:24+02:00</time>
      </trkpt>
      <trkpt lat="43.7129" lon="2.14295">
        <ele>391</ele>
        <time>2019-10-16T11:49:52+02:00</time>
      </trkpt>
      <trkpt lat="43.71285" lon="2.14257">
        <ele>391</ele>
        <time>2019-10-16T11:50:16+02:00</time>
      </trkpt>
      <trkpt lat="43.71282" lon="2.1422">
        <ele>391</ele>
        <time>2019-10-16T11:51:10+02:00</time>
      </trkpt>
      <trkpt lat="43.71273" lon="2.14184">
        <ele>392</ele>
        <time>2019-10-16T11:51:40+02:00</time>
      </trkpt>
      <trkpt lat="43.71258" lon="2.14152">
        <ele>392</ele>
        <time>2019-10-16T11:52:09+02:00</time>
      </trkpt>
      <trkpt lat="43.71239" lon="2.14125">
        <ele>392</ele>
        <time>2019-10-16T11:52:39+02:00</time>
      </trkpt>
      <trkpt lat="43.71224" lon="2.14093">
        <ele>392</ele>
        <time>2019-10-16T11:53:12+02:00</time>
      </trkpt>
      <trkpt lat="43.71218" lon="2.14056">
        <ele>393</ele>
        <time>2019-10-16T11:53:47+02:00</time>
      </trkpt>
      <trkpt lat="43.71213" lon="2.14018">
        <ele>393</ele>
        <time>2019-10-16T11:54:12+02:00</time>
      </trkpt>
      <trkpt lat="43.71203" lon="2.13983">
        <ele>394</ele>
        <time>2019-10-16T11:54:37+02:00</time>
      </trkpt>
      <trkpt lat="43.71186" lon="2.13953">
        <ele>395</ele>
        <time>2019-10-16T11:55:14+02:00</time>
      </trkpt>
      <trkpt lat="43.71166" lon="2.13929">
        <ele>395</ele>
        <time>2019-10-16T11:55:42+02:00</time>
      </trkpt>
      <trkpt lat="43.71142" lon="2.13909">
        <ele>396</ele>
        <time>2019-10-16T11:56:09+02:00</time>
      </trkpt>
      <trkpt lat="43.71119" lon="2.13888">
        <ele>396</ele>
        <time>2019-10-16T11:56:36+02:00</time>
      </trkpt>
      <trkpt lat="43.71104" lon="2.13857">
        <ele>396</ele>
        <time>2019-10-16T11:57:00+02:00</time>
      </trkpt>
      <trkpt lat="43.71084" lon="2.1383">
        <ele>397</ele>
        <time>2019-10-16T11:57:24+02:00</time>
      </trkpt>
      <trkpt lat="43.71063" lon="2.13808">
        <ele>397</ele>
        <time>2019-10-16T11:57:48+02:00</time>
      </trkpt>
      <trkpt lat="43.71043" lon="2.13782">
        <ele>397</ele>
        <time>2019-10-16T11:58:13+02:00</time>
      </trkpt>
      <trkpt lat="43.71067" lon="2.13799">
        <ele>397</ele>
        <time>2019-10-16T11:58:51+02:00</time>
      </trkpt>
      <trkpt lat="43.71093" lon="2.13811">
        <ele>398</ele>
        <time>2019-10-16T11:59:21+02:00</time>
      </trkpt>
      <trkpt lat="43.7112" lon="2.13808">
        <ele>398</ele>
        <time>2019-10-16T11:59:53+02:00</time>
      </trkpt>
      <trkpt lat="43.71143" lon="2.13787">
        <ele>399</ele>
        <time>2019-10-16T12:00:27+02:00</time>
      </trkpt>
      <trkpt lat="43.71161" lon="2.13759">
        <ele>399</ele>
        <time>2019-10-16T12:00:59+02:00</time>
      </trkpt>
      <trkpt lat="43.71183" lon="2.13737">
        <ele>400</ele>
        <time>2019-10-16T12:01:29+02:00</time>
      </trkpt>
      <trkpt lat="43.71209" lon="2.13724">
        <ele>401</ele>
        <time>2019-10-16T12:01:55+02:00</time>
      </trkpt>
      <trkpt lat="43.71234" lon="2.13709">
        <ele>401</ele>
        <time>2019-10-16T12:02:20+02:00</time>
      </trkpt>
      <trkpt lat="43.71259" lon="2.13696">
        <ele>402</ele>
        <time>2019-10-16T12:02:47+02:00</time>
      </trkpt>
      <trkpt lat="43.71277" lon="2.13666">
        <ele>402</ele>
        <time>2019-10-16T12:03:13+02:00</time>
      </trkpt>
      <trkpt lat="43.71287" lon="2.13629">
        <ele>403</ele>
        <time>2019-10-16T12:03:43+02:00</time>
      </trkpt>
      <trkpt lat="43.71297" lon="2.13595">
        <ele>404</ele>
        <time>2019-10-16T12:04:07+02:00</time>
      </trkpt>
      <trkpt lat="43.71312" lon="2.13564">
        <ele>404</ele>
        <time>2019-10-16T12:04:38+02:00</time>
      </trkpt>
      <trkpt lat="43.7133" lon="2.13535">
        <ele>404</ele>
        <time>2019-10-16T12:05:04+02:00</time>
      </trkpt>
      <trkpt lat="43.71348" lon="2.13507">
        <ele>404</ele>
        <time>2019-10-16T12:05:31+02:00</time>
      </trkpt>
      <trkpt lat="43.71362" lon="2.13474">
        <ele>405</ele>
        <time>2019-10-16T12:05:58+02:00</time>
      </trkpt>
      <trkpt lat="43.71344" lon="2.13445">
        <ele>405</ele>
        <time>2019-10-16T12:06:32+02:00</time>
      </trkpt>
      <trkpt lat="43.71317" lon="2.13435">
        <ele>404</ele>
        <time>2019-10-16T12:06:56+02:00</time>
      </trkpt>
      <trkpt lat="43.7129" lon="2.13428">
        <ele>404</ele>
        <time>2019-10-16T12:07:19+02:00</time>
      </trkpt>
      <trkpt lat="43.71307" lon="2.13399">
        <ele>404</ele>
        <time>2019-10-16T12:08:12+02:00</time>
      </trkpt>
      <trkpt lat="43.71329" lon="2.13376">
        <ele>404</ele>
        <time>2019-10-16T12:08:39+02:00</time>
      </trkpt>
      <trkpt lat="43.71349" lon="2.13351">
        <ele>404</ele>
        <time>2019-10-16T12:09:03+02:00</time>
      </trkpt>
      <trkpt lat="43.71365" lon="2.13321">
        <ele>404</ele>
        <time>2019-10-16T12:09:31+02:00</time>
      </trkpt>
      <trkpt lat="43.71385" lon="2.13295">
        <ele>404</ele>
        <time>2019-10-16T12:09:53+02:00</time>
      </trkpt>
      <trkpt lat="43.71409" lon="2.13275">
        <ele>404</ele>
        <time>2019-10-16T12:10:16+02:00</time>
      </trkpt>
      <trkpt lat="43.71435" lon="2.13265">
        <ele>403</ele>
        <time>2019-10-16T12:10:38+02:00</time>
      </trkpt>
      <trkpt lat="43.71462" lon="2.13259">
        <ele>403</ele>
        <time>2019-10-16T12:11:00+02:00</time>
      </trkpt>
      <trkpt lat="43.71486" lon="2.13242">
        <ele>403</ele>
        <time>2019-10-16T12:11:23+02:00</time>
      </trkpt>
      <trkpt lat="43.71514" lon="2.13239">
        <ele>402</ele>
        <time>2019-10-16T12:11:46+02:00</time>
      </trkpt>
      <trkpt lat="43.71533" lon="2.13212">
        <ele>402</ele>
        <time>2019-10-16T12:12:08+02:00</time>
      </trkpt>
      <trkpt lat="43.71555" lon="2.13189">
        <ele>401</ele>
        <time>2019-10-16T12:12:31+02:00</time>
      </trkpt>
      <trkpt lat="43.71575" lon="2.13163">
        <ele>400</ele>
        <time>2019-10-16T12:12:56+02:00</time>
      </trkpt>
      <trkpt lat="43.71602" lon="2.13153">
        <ele>399</ele>
        <time>2019-10-16T12:13:19+02:00</time>
      </trkpt>
      <trkpt lat="43.71629" lon="2.13143">
        <ele>399</ele>
        <time>2019-10-16T12:13:38+02:00</time>
      </trkpt>
      <trkpt lat="43.71653" lon="2.13123">
        <ele>398</ele>
        <time>2019-10-16T12:14:04+02:00</time>
      </trkpt>
      <trkpt lat="43.71672" lon="2.13095">
        <ele>397</ele>
        <time>2019-10-16T12:14:26+02:00</time>
      </trkpt>
      <trkpt lat="43.71673" lon="2.13056">
        <ele>397</ele>
        <time>2019-10-16T12:14:52+02:00</time>
      </trkpt>
      <trkpt lat="43.71661" lon="2.13021">
        <ele>396</ele>
        <time>2019-10-16T12:15:09+02:00</time>
      </trkpt>
      <trkpt lat="43.71641" lon="2.12995">
        <ele>396</ele>
        <time>2019-10-16T12:15:28+02:00</time>
      </trkpt>
      <trkpt lat="43.71619" lon="2.12973">
        <ele>395</ele>
        <time>2019-10-16T12:15:56+02:00</time>
      </trkpt>
      <trkpt lat="43.71594" lon="2.12956">
        <ele>395</ele>
        <time>2019-10-16T12:16:21+02:00</time>
      </trkpt>
      <trkpt lat="43.71567" lon="2.12948">
        <ele>395</ele>
        <time>2019-10-16T12:16:46+02:00</time>
      </trkpt>
      <trkpt lat="43.7154" lon="2.12938">
        <ele>394</ele>
        <time>2019-10-16T12:17:16+02:00</time>
      </trkpt>
      <trkpt lat="43.71516" lon="2.1292">
        <ele>394</ele>
        <time>2019-10-16T12:17:43+02:00</time>
      </trkpt>
      <trkpt lat="43.71496" lon="2.12894">
        <ele>394</ele>
        <time>2019-10-16T12:18:04+02:00</time>
      </trkpt>
      <trkpt lat="43.71477" lon="2.12867">
        <ele>394</ele>
        <time>2019-10-16T12:18:29+02:00</time>
      </trkpt>
      <trkpt lat="43.7146" lon="2.12838">
        <ele>394</ele>
        <time>2019-10-16T12:18:52+02:00</time>
      </trkpt>
      <trkpt lat="43.71447" lon="2.12803">
        <ele>393</ele>
        <time>2019-10-16T12:19:20+02:00</time>
      </trkpt>
      <trkpt lat="43.71444" lon="2.12763">
        <ele>393</ele>
        <time>2019-10-16T12:19:40+02:00</time>
      </trkpt>
      <trkpt lat="43.71436" lon="2.12726">
        <ele>393</ele>
        <time>2019-10-16T12:20:08+02:00</time>
      </trkpt>
      <trkpt lat="43.71419" lon="2.12696">
        <ele>393</ele>
        <time>2019-10-16T12:20:30+02:00</time>
      </trkpt>
      <trkpt lat="43.71414" lon="2.12658">
        <ele>393</ele>
        <time>2019-10-16T12:20:56+02:00</time>
      </trkpt>
      <trkpt lat="43.71396" lon="2.1263">
        <ele>393</ele>
        <time>2019-10-16T12:21:26+02:00</time>
      </trkpt>
      <trkpt lat="43.71374" lon="2.12608">
        <ele>392</ele>
        <time>2019-10-16T12:21:50+02:00</time>
      </trkpt>
      <trkpt lat="43.71352" lon="2.12586">
        <ele>392</ele>
        <time>2019-10-16T12:22:14+02:00</time>
      </trkpt>
      <trkpt lat="43.71327" lon="2.12569">
        <ele>392</ele>
        <time>2019-10-16T12:24:28+02:00</time>
      </trkpt>
      <trkpt lat="43.71302" lon="2.12553">
        <ele>391</ele>
        <time>2019-10-16T12:24:51+02:00</time>
      </trkpt>
      <trkpt lat="43.71279" lon="2.12535">
        <ele>391</ele>
        <time>2019-10-16T12:25:15+02:00</time>
      </trkpt>
      <trkpt lat="43.71253" lon="2.12548">
        <ele>390</ele>
        <time>2019-10-16T12:25:42+02:00</time>
      </trkpt>
      <trkpt lat="43.71232" lon="2.12574">
        <ele>390</ele>
        <time>2019-10-16T12:26:06+02:00</time>
      </trkpt>
      <trkpt lat="43.71209" lon="2.12595">
        <ele>390</ele>
        <time>2019-10-16T12:26:29+02:00</time>
      </trkpt>
      <trkpt lat="43.71182" lon="2.12604">
        <ele>390</ele>
        <time>2019-10-16T12:26:49+02:00</time>
      </trkpt>
      <trkpt lat="43.71155" lon="2.12601">
        <ele>390</ele>
        <time>2019-10-16T12:27:12+02:00</time>
      </trkpt>
      <trkpt lat="43.7113" lon="2.12583">
        <ele>389</ele>
        <time>2019-10-16T12:27:33+02:00</time>
      </trkpt>
      <trkpt lat="43.71103" lon="2.12578">
        <ele>389</ele>
        <time>2019-10-16T12:29:06+02:00</time>
      </trkpt>
      <trkpt lat="43.71103" lon="2.1254">
        <ele>390</ele>
        <time>2019-10-16T12:30:25+02:00</time>
      </trkpt>
      <trkpt lat="43.71105" lon="2.12502">
        <ele>390</ele>
        <time>2019-10-16T12:30:51+02:00</time>
      </trkpt>
      <trkpt lat="43.71112" lon="2.12465">
        <ele>390</ele>
        <time>2019-10-16T12:31:15+02:00</time>
      </trkpt>
      <trkpt lat="43.71123" lon="2.1243">
        <ele>390</ele>
        <time>2019-10-16T12:31:43+02:00</time>
      </trkpt>
      <trkpt lat="43.71134" lon="2.12395">
        <ele>390</ele>
        <time>2019-10-16T12:32:05+02:00</time>
      </trkpt>
      <trkpt lat="43.71141" lon="2.12359">
        <ele>389</ele>
        <time>2019-10-16T12:32:30+02:00</time>
      </trkpt>
      <trkpt lat="43.71153" lon="2.12325">
        <ele>389</ele>
        <time>2019-10-16T12:32:56+02:00</time>
      </trkpt>
      <trkpt lat="43.71161" lon="2.1229">
        <ele>388</ele>
        <time>2019-10-16T12:33:21+02:00</time>
      </trkpt>
      <trkpt lat="43.71167" lon="2.12253">
        <ele>388</ele>
        <time>2019-10-16T12:33:46+02:00</time>
      </trkpt>
      <trkpt lat="43.71175" lon="2.12216">
        <ele>387</ele>
        <time>2019-10-16T12:34:17+02:00</time>
      </trkpt>
      <trkpt lat="43.71184" lon="2.1218">
        <ele>387</ele>
        <time>2019-10-16T12:34:40+02:00</time>
      </trkpt>
      <trkpt lat="43.71193" lon="2.12144">
        <ele>386</ele>
        <time>2019-10-16T12:35:03+02:00</time>
      </trkpt>
      <trkpt lat="43.71202" lon="2.12107">
        <ele>386</ele>
        <time>2019-10-16T12:35:26+02:00</time>
      </trkpt>
      <trkpt lat="43.7121" lon="2.12071">
        <ele>385</ele>
        <time>2019-10-16T12:35:54+02:00</time>
      </trkpt>
      <trkpt lat="43.71218" lon="2.12035">
        <ele>385</ele>
        <time>2019-10-16T12:36:18+02:00</time>
      </trkpt>
      <trkpt lat="43.71226" lon="2.11999">
        <ele>384</ele>
        <time>2019-10-16T12:36:44+02:00</time>
      </trkpt>
      <trkpt lat="43.71237" lon="2.11961">
        <ele>384</ele>
        <time>2019-10-16T12:38:19+02:00</time>
      </trkpt>
      <trkpt lat="43.71247" lon="2.11925">
        <ele>384</ele>
        <time>2019-10-16T12:38:37+02:00</time>
      </trkpt>
      <trkpt lat="43.71256" lon="2.11888">
        <ele>384</ele>
        <time>2019-10-16T12:38:59+02:00</time>
      </trkpt>
      <trkpt lat="43.71275" lon="2.1186">
        <ele>384</ele>
        <time>2019-10-16T12:39:23+02:00</time>
      </trkpt>
      <trkpt lat="43.71289" lon="2.11829">
        <ele>384</ele>
        <time>2019-10-16T12:39:45+02:00</time>
      </trkpt>
      <trkpt lat="43.71307" lon="2.11796">
        <ele>384</ele>
        <time>2019-10-16T12:40:10+02:00</time>
      </trkpt>
      <trkpt lat="43.71318" lon="2.1176">
        <ele>384</ele>
        <time>2019-10-16T12:40:31+02:00</time>
      </trkpt>
      <trkpt lat="43.71337" lon="2.11733">
        <ele>384</ele>
        <time>2019-10-16T12:40:55+02:00</time>
      </trkpt>
      <trkpt lat="43.71341" lon="2.11696">
        <ele>384</ele>
        <time>2019-10-16T12:41:14+02:00</time>
      </trkpt>
      <trkpt lat="43.71349" lon="2.11659">
        <ele>384</ele>
        <time>2019-10-16T12:41:50+02:00</time>
      </trkpt>
      <trkpt lat="43.71357" lon="2.11623">
        <ele>384</ele>
        <time>2019-10-16T12:42:14+02:00</time>
      </trkpt>
      <trkpt lat="43.71363" lon="2.11586">
        <ele>384</ele>
        <time>2019-10-16T12:42:39+02:00</time>
      </trkpt>
      <trkpt lat="43.71382" lon="2.11558">
        <ele>384</ele>
        <time>2019-10-16T12:43:04+02:00</time>
      </trkpt>
      <trkpt lat="43.71406" lon="2.11539">
        <ele>384</ele>
        <time>2019-10-16T12:43:27+02:00</time>
      </trkpt>
      <trkpt lat="43.7143" lon="2.1152">
        <ele>384</ele>
        <time>2019-10-16T12:43:55+02:00</time>
      </trkpt>
      <trkpt lat="43.71447" lon="2.11488">
        <ele>384</ele>
        <time>2019-10-16T12:44:27+02:00</time>
      </trkpt>
      <trkpt lat="43.7147" lon="2.11467">
        <ele>385</ele>
        <time>2019-10-16T12:44:59+02:00</time>
      </trkpt>
      <trkpt lat="43.71495" lon="2.1145">
        <ele>384</ele>
        <time>2019-10-16T12:45:30+02:00</time>
      </trkpt>
      <trkpt lat="43.71515" lon="2.11425">
        <ele>384</ele>
        <time>2019-10-16T12:46:03+02:00</time>
      </trkpt>
      <trkpt lat="43.71525" lon="2.11389">
        <ele>384</ele>
        <time>2019-10-16T12:46:49+02:00</time>
      </trkpt>
      <trkpt lat="43.71537" lon="2.11355">
        <ele>384</ele>
        <time>2019-10-16T12:47:14+02:00</time>
      </trkpt>
      <trkpt lat="43.7155" lon="2.1132">
        <ele>384</ele>
        <time>2019-10-16T12:47:42+02:00</time>
      </trkpt>
      <trkpt lat="43.71554" lon="2.11283">
        <ele>384</ele>
        <time>2019-10-16T12:48:10+02:00</time>
      </trkpt>
      <trkpt lat="43.71548" lon="2.11246">
        <ele>385</ele>
        <time>2019-10-16T12:48:34+02:00</time>
      </trkpt>
      <trkpt lat="43.71537" lon="2.1121">
        <ele>385</ele>
        <time>2019-10-16T12:49:02+02:00</time>
      </trkpt>
      <trkpt lat="43.71545" lon="2.11173">
        <ele>385</ele>
        <time>2019-10-16T12:49:20+02:00</time>
      </trkpt>
      <trkpt lat="43.71556" lon="2.11138">
        <ele>385</ele>
        <time>2019-10-16T12:49:40+02:00</time>
      </trkpt>
      <trkpt lat="43.71574" lon="2.11109">
        <ele>385</ele>
        <time>2019-10-16T12:50:04+02:00</time>
      </trkpt>
      <trkpt lat="43.71591" lon="2.11081">
        <ele>385</ele>
        <time>2019-10-16T12:50:28+02:00</time>
      </trkpt>
      <trkpt lat="43.71603" lon="2.11048">
        <ele>385</ele>
        <time>2019-10-16T12:50:53+02:00</time>
      </trkpt>
      <trkpt lat="43.71615" lon="2.11014">
        <ele>386</ele>
        <time>2019-10-16T12:51:21+02:00</time>
      </trkpt>
      <trkpt lat="43.71626" lon="2.10979">
        <ele>386</ele>
        <time>2019-10-16T12:51:54+02:00</time>
      </trkpt>
      <trkpt lat="43.71637" lon="2.10944">
        <ele>386</ele>
        <time>2019-10-16T12:52:22+02:00</time>
      </trkpt>
      <trkpt lat="43.71648" lon="2.10909">
        <ele>386</ele>
        <time>2019-10-16T12:52:44+02:00</time>
      </trkpt>
      <trkpt lat="43.71658" lon="2.10873">
        <ele>387</ele>
        <time>2019-10-16T12:53:18+02:00</time>
      </trkpt>
      <trkpt lat="43.71634" lon="2.10894">
        <ele>386</ele>
        <time>2019-10-16T12:54:02+02:00</time>
      </trkpt>
      <trkpt lat="43.71616" lon="2.10922">
        <ele>386</ele>
        <time>2019-10-16T12:54:33+02:00</time>
      </trkpt>
      <trkpt lat="43.7159" lon="2.10935">
        <ele>386</ele>
        <time>2019-10-16T12:54:57+02:00</time>
      </trkpt>
      <trkpt lat="43.71562" lon="2.10935">
        <ele>386</ele>
        <time>2019-10-16T12:55:21+02:00</time>
      </trkpt>
      <trkpt lat="43.71535" lon="2.10934">
        <ele>386</ele>
        <time>2019-10-16T12:55:43+02:00</time>
      </trkpt>
      <trkpt lat="43.71508" lon="2.10937">
        <ele>386</ele>
        <time>2019-10-16T12:56:11+02:00</time>
      </trkpt>
      <trkpt lat="43.71481" lon="2.10943">
        <ele>385</ele>
        <time>2019-10-16T12:56:43+02:00</time>
      </trkpt>
      <trkpt lat="43.71458" lon="2.10964">
        <ele>385</ele>
        <time>2019-10-16T12:57:04+02:00</time>
      </trkpt>
      <trkpt lat="43.7143" lon="2.10967">
        <ele>385</ele>
        <time>2019-10-16T12:57:29+02:00</time>
      </trkpt>
      <trkpt lat="43.71402" lon="2.10968">
        <ele>385</ele>
        <time>2019-10-16T12:57:52+02:00</time>
      </trkpt>
      <trkpt lat="43.71377" lon="2.1095">
        <ele>384</ele>
        <time>2019-10-16T12:58:16+02:00</time>
      </trkpt>
      <trkpt lat="43.71359" lon="2.10923">
        <ele>384</ele>
        <time>2019-10-16T12:58:33+02:00</time>
      </trkpt>
      <trkpt lat="43.71349" lon="2.10888">
        <ele>383</ele>
        <time>2019-10-16T12:59:00+02:00</time>
      </trkpt>
      <trkpt lat="43.71358" lon="2.10852">
        <ele>383</ele>
        <time>2019-10-16T12:59:33+02:00</time>
      </trkpt>
      <trkpt lat="43.71351" lon="2.10814">
        <ele>382</ele>
        <time>2019-10-16T13:00:03+02:00</time>
      </trkpt>
      <trkpt lat="43.71351" lon="2.10776">
        <ele>382</ele>
        <time>2019-10-16T13:00:25+02:00</time>
      </trkpt>
      <trkpt lat="43.71355" lon="2.10738">
        <ele>382</ele>
        <time>2019-10-16T13:00:46+02:00</time>
      </trkpt>
      <trkpt lat="43.71355" lon="2.107">
        <ele>382</ele>
        <time>2019-10-16T13:01:07+02:00</time>
      </trkpt>
      <trkpt lat="43.7135" lon="2.10663">
        <ele>382</ele>
        <time>2019-10-16T13:01:33+02:00</time>
      </trkpt>
      <trkpt lat="43.71339" lon="2.10628">
        <ele>381</ele>
        <time>2019-10-16T13:01:53+02:00</time>
      </trkpt>
      <trkpt lat="43.7133" lon="2.10592">
        <ele>381</ele>
        <time>2019-10-16T13:02:31+02:00</time>
      </trkpt>
      <trkpt lat="43.71303" lon="2.10584">
        <ele>380</ele>
        <time>2019-10-16T13:03:00+02:00</time>
      </trkpt>
      <trkpt lat="43.71282" lon="2.10609">
        <ele>380</ele>
        <time>2019-10-16T13:03:32+02:00</time>
      </trkpt>
      <trkpt lat="43.71277" lon="2.10646">
        <ele>379</ele>
        <time>2019-10-16T13:04:16+02:00</time>
      </trkpt>
      <trkpt lat="43.71248" lon="2.10657">
        <ele>326</ele>
        <time>2019-10-16T13:41:00+02:00</time>
      </trkpt>
      <trkpt lat="43.71224" lon="2.10679">
        <ele>324</ele>
        <time>2019-10-16T13:42:18+02:00</time>
      </trkpt>
      <trkpt lat="43.712" lon="2.10659">
        <ele>330</ele>
        <time>2019-10-16T13:43:57+02:00</time>
      </trkpt>
      <trkpt lat="43.71176" lon="2.10638">
        <ele>331</ele>
        <time>2019-10-16T13:44:25+02:00</time>
      </trkpt>
      <trkpt lat="43.71175" lon="2.106">
        <ele>331</ele>
        <time>2019-10-16T13:44:43+02:00</time>
      </trkpt>
      <trkpt lat="43.71179" lon="2.10562">
        <ele>331</ele>
        <time>2019-10-16T13:45:03+02:00</time>
      </trkpt>
      <trkpt lat="43.71183" lon="2.10526">
        <ele>330</ele>
        <time>2019-10-16T13:45:22+02:00</time>
      </trkpt>
      <trkpt lat="43.7119" lon="2.10488">
        <ele>329</ele>
        <time>2019-10-16T13:45:42+02:00</time>
      </trkpt>
      <trkpt lat="43.71193" lon="2.10451">
        <ele>327</ele>
        <time>2019-10-16T13:46:04+02:00</time>
      </trkpt>
      <trkpt lat="43.71199" lon="2.10413">
        <ele>326</ele>
        <time>2019-10-16T13:46:25+02:00</time>
      </trkpt>
      <trkpt lat="43.71204" lon="2.10375">
        <ele>324</ele>
        <time>2019-10-16T13:46:50+02:00</time>
      </trkpt>
      <trkpt lat="43.71208" lon="2.10337">
        <ele>322</ele>
        <time>2019-10-16T13:47:19+02:00</time>
      </trkpt>
      <trkpt lat="43.71202" lon="2.10301">
        <ele>320</ele>
        <time>2019-10-16T13:47:50+02:00</time>
      </trkpt>
      <trkpt lat="43.71211" lon="2.10264">
        <ele>320</ele>
        <time>2019-10-16T13:48:17+02:00</time>
      </trkpt>
      <trkpt lat="43.71224" lon="2.10231">
        <ele>318</ele>
        <time>2019-10-16T13:48:42+02:00</time>
      </trkpt>
      <trkpt lat="43.71237" lon="2.10198">
        <ele>317</ele>
        <time>2019-10-16T13:49:09+02:00</time>
      </trkpt>
      <trkpt lat="43.71249" lon="2.10163">
        <ele>316</ele>
        <time>2019-10-16T13:49:34+02:00</time>
      </trkpt>
      <trkpt lat="43.71261" lon="2.10128">
        <ele>315</ele>
        <time>2019-10-16T13:49:59+02:00</time>
      </trkpt>
      <trkpt lat="43.71276" lon="2.10096">
        <ele>315</ele>
        <time>2019-10-16T13:50:21+02:00</time>
      </trkpt>
      <trkpt lat="43.71284" lon="2.1006">
        <ele>314</ele>
        <time>2019-10-16T13:50:57+02:00</time>
      </trkpt>
      <trkpt lat="43.71282" lon="2.10021">
        <ele>314</ele>
        <time>2019-10-16T13:51:27+02:00</time>
      </trkpt>
      <trkpt lat="43.71301" lon="2.09994">
        <ele>314</ele>
        <time>2019-10-16T13:51:54+02:00</time>
      </trkpt>
      <trkpt lat="43.71321" lon="2.09968">
        <ele>315</ele>
        <time>2019-10-16T13:52:21+02:00</time>
      </trkpt>
      <trkpt lat="43.71339" lon="2.0994">
        <ele>315</ele>
        <time>2019-10-16T13:52:45+02:00</time>
      </trkpt>
      <trkpt lat="43.71348" lon="2.09904">
        <ele>315</ele>
        <time>2019-10-16T13:53:10+02:00</time>
      </trkpt>
      <trkpt lat="43.71358" lon="2.09869">
        <ele>315</ele>
        <time>2019-10-16T13:53:33+02:00</time>
      </trkpt>
      <trkpt lat="43.7133" lon="2.09876">
        <ele>316</ele>
        <time>2019-10-16T13:54:29+02:00</time>
      </trkpt>
      <trkpt lat="43.71308" lon="2.09898">
        <ele>317</ele>
        <time>2019-10-16T13:54:56+02:00</time>
      </trkpt>
      <trkpt lat="43.71285" lon="2.09917">
        <ele>317</ele>
        <time>2019-10-16T13:55:21+02:00</time>
      </trkpt>
      <trkpt lat="43.71262" lon="2.09942">
        <ele>317</ele>
        <time>2019-10-16T13:55:51+02:00</time>
      </trkpt>
      <trkpt lat="43.7124" lon="2.09965">
        <ele>318</ele>
        <time>2019-10-16T13:56:12+02:00</time>
      </trkpt>
      <trkpt lat="43.71217" lon="2.09985">
        <ele>318</ele>
        <time>2019-10-16T13:56:34+02:00</time>
      </trkpt>
      <trkpt lat="43.71194" lon="2.10006">
        <ele>318</ele>
        <time>2019-10-16T13:56:59+02:00</time>
      </trkpt>
      <trkpt lat="43.71171" lon="2.10026">
        <ele>318</ele>
        <time>2019-10-16T13:57:22+02:00</time>
      </trkpt>
      <trkpt lat="43.71151" lon="2.10051">
        <ele>318</ele>
        <time>2019-10-16T13:57:50+02:00</time>
      </trkpt>
      <trkpt lat="43.71129" lon="2.10073">
        <ele>319</ele>
        <time>2019-10-16T13:58:30+02:00</time>
      </trkpt>
      <trkpt lat="43.71108" lon="2.10097">
        <ele>319</ele>
        <time>2019-10-16T13:58:56+02:00</time>
      </trkpt>
      <trkpt lat="43.71084" lon="2.10116">
        <ele>320</ele>
        <time>2019-10-16T13:59:19+02:00</time>
      </trkpt>
      <trkpt lat="43.71062" lon="2.1014">
        <ele>320</ele>
        <time>2019-10-16T13:59:43+02:00</time>
      </trkpt>
      <trkpt lat="43.71042" lon="2.10165">
        <ele>320</ele>
        <time>2019-10-16T14:00:15+02:00</time>
      </trkpt>
      <trkpt lat="43.71019" lon="2.10184">
        <ele>321</ele>
        <time>2019-10-16T14:00:36+02:00</time>
      </trkpt>
      <trkpt lat="43.70997" lon="2.10206">
        <ele>321</ele>
        <time>2019-10-16T14:00:58+02:00</time>
      </trkpt>
      <trkpt lat="43.70975" lon="2.10229">
        <ele>321</ele>
        <time>2019-10-16T14:01:24+02:00</time>
      </trkpt>
      <trkpt lat="43.70952" lon="2.10249">
        <ele>322</ele>
        <time>2019-10-16T14:01:51+02:00</time>
      </trkpt>
      <trkpt lat="43.7093" lon="2.10271">
        <ele>322</ele>
        <time>2019-10-16T14:02:14+02:00</time>
      </trkpt>
      <trkpt lat="43.70909" lon="2.10296">
        <ele>322</ele>
        <time>2019-10-16T14:02:40+02:00</time>
      </trkpt>
      <trkpt lat="43.70888" lon="2.10321">
        <ele>323</ele>
        <time>2019-10-16T14:03:11+02:00</time>
      </trkpt>
      <trkpt lat="43.70865" lon="2.1034">
        <ele>323</ele>
        <time>2019-10-16T14:03:30+02:00</time>
      </trkpt>
      <trkpt lat="43.70841" lon="2.10321">
        <ele>323</ele>
        <time>2019-10-16T14:04:10+02:00</time>
      </trkpt>
      <trkpt lat="43.70842" lon="2.10283">
        <ele>324</ele>
        <time>2019-10-16T14:04:37+02:00</time>
      </trkpt>
      <trkpt lat="43.70831" lon="2.10248">
        <ele>324</ele>
        <time>2019-10-16T14:05:00+02:00</time>
      </trkpt>
      <trkpt lat="43.70818" lon="2.10214">
        <ele>325</ele>
        <time>2019-10-16T14:05:25+02:00</time>
      </trkpt>
      <trkpt lat="43.70803" lon="2.10183">
        <ele>325</ele>
        <time>2019-10-16T14:05:51+02:00</time>
      </trkpt>
      <trkpt lat="43.7079" lon="2.10149">
        <ele>325</ele>
        <time>2019-10-16T14:06:17+02:00</time>
      </trkpt>
      <trkpt lat="43.70776" lon="2.10116">
        <ele>325</ele>
        <time>2019-10-16T14:06:43+02:00</time>
      </trkpt>
      <trkpt lat="43.70759" lon="2.10086">
        <ele>326</ele>
        <time>2019-10-16T14:07:11+02:00</time>
      </trkpt>
      <trkpt lat="43.70732" lon="2.10082">
        <ele>326</ele>
        <time>2019-10-16T14:07:45+02:00</time>
      </trkpt>
      <trkpt lat="43.70703" lon="2.10081">
        <ele>326</ele>
        <time>2019-10-16T14:08:13+02:00</time>
      </trkpt>
      <trkpt lat="43.70676" lon="2.10077">
        <ele>327</ele>
        <time>2019-10-16T14:08:38+02:00</time>
      </trkpt>
      <trkpt lat="43.70649" lon="2.10069">
        <ele>327</ele>
        <time>2019-10-16T14:09:12+02:00</time>
      </trkpt>
      <trkpt lat="43.70623" lon="2.10055">
        <ele>327</ele>
        <time>2019-10-16T14:09:43+02:00</time>
      </trkpt>
      <trkpt lat="43.70596" lon="2.10049">
        <ele>328</ele>
        <time>2019-10-16T14:10:18+02:00</time>
      </trkpt>
      <trkpt lat="43.70573" lon="2.10026">
        <ele>328</ele>
        <time>2019-10-16T14:10:47+02:00</time>
      </trkpt>
      <trkpt lat="43.70571" lon="2.09989">
        <ele>328</ele>
        <time>2019-10-16T14:11:14+02:00</time>
      </trkpt>
      <trkpt lat="43.70576" lon="2.09951">
        <ele>328</ele>
        <time>2019-10-16T14:11:43+02:00</time>
      </trkpt>
      <trkpt lat="43.70569" lon="2.09914">
        <ele>329</ele>
        <time>2019-10-16T14:12:11+02:00</time>
      </trkpt>
      <trkpt lat="43.70566" lon="2.09876">
        <ele>329</ele>
        <time>2019-10-16T14:12:40+02:00</time>
      </trkpt>
      <trkpt lat="43.70548" lon="2.09847">
        <ele>330</ele>
        <time>2019-10-16T14:13:04+02:00</time>
      </trkpt>
      <trkpt lat="43.70531" lon="2.09818">
        <ele>331</ele>
        <time>2019-10-16T14:13:30+02:00</time>
      </trkpt>
      <trkpt lat="43.7051" lon="2.09795">
        <ele>332</ele>
        <time>2019-10-16T14:14:54+02:00</time>
      </trkpt>
      <trkpt lat="43.70492" lon="2.09767">
        <ele>334</ele>
        <time>2019-10-16T14:16:43+02:00</time>
      </trkpt>
      <trkpt lat="43.70469" lon="2.09746">
        <ele>334</ele>
        <time>2019-10-16T14:17:10+02:00</time>
      </trkpt>
      <trkpt lat="43.70459" lon="2.0971">
        <ele>334</ele>
        <time>2019-10-16T14:17:35+02:00</time>
      </trkpt>
      <trkpt lat="43.70452" lon="2.09674">
        <ele>335</ele>
        <time>2019-10-16T14:17:59+02:00</time>
      </trkpt>
      <trkpt lat="43.70448" lon="2.09636">
        <ele>335</ele>
        <time>2019-10-16T14:18:25+02:00</time>
      </trkpt>
      <trkpt lat="43.70421" lon="2.09626">
        <ele>335</ele>
        <time>2019-10-16T14:18:55+02:00</time>
      </trkpt>
      <trkpt lat="43.70403" lon="2.09597">
        <ele>336</ele>
        <time>2019-10-16T14:19:29+02:00</time>
      </trkpt>
      <trkpt lat="43.70392" lon="2.09562">
        <ele>336</ele>
        <time>2019-10-16T14:19:52+02:00</time>
      </trkpt>
      <trkpt lat="43.70375" lon="2.09532">
        <ele>336</ele>
        <time>2019-10-16T14:20:20+02:00</time>
      </trkpt>
      <trkpt lat="43.70359" lon="2.09501">
        <ele>337</ele>
        <time>2019-10-16T14:21:55+02:00</time>
      </trkpt>
      <trkpt lat="43.70339" lon="2.09474">
        <ele>337</ele>
        <time>2019-10-16T14:22:20+02:00</time>
      </trkpt>
      <trkpt lat="43.70321" lon="2.09447">
        <ele>337</ele>
        <time>2019-10-16T14:22:57+02:00</time>
      </trkpt>
      <trkpt lat="43.70304" lon="2.09477">
        <ele>337</ele>
        <time>2019-10-16T14:23:26+02:00</time>
      </trkpt>
      <trkpt lat="43.70293" lon="2.0951">
        <ele>338</ele>
        <time>2019-10-16T14:23:54+02:00</time>
      </trkpt>
      <trkpt lat="43.70271" lon="2.09534">
        <ele>338</ele>
        <time>2019-10-16T14:24:19+02:00</time>
      </trkpt>
      <trkpt lat="43.70251" lon="2.09561">
        <ele>338</ele>
        <time>2019-10-16T14:24:39+02:00</time>
      </trkpt>
      <trkpt lat="43.70239" lon="2.09596">
        <ele>339</ele>
        <time>2019-10-16T14:25:11+02:00</time>
      </trkpt>
      <trkpt lat="43.70235" lon="2.09633">
        <ele>339</ele>
        <time>2019-10-16T14:25:39+02:00</time>
      </trkpt>
      <trkpt lat="43.70215" lon="2.09662">
        <ele>340</ele>
        <time>2019-10-16T14:26:09+02:00</time>
      </trkpt>
      <trkpt lat="43.70194" lon="2.09689">
        <ele>340</ele>
        <time>2019-10-16T14:26:58+02:00</time>
      </trkpt>
      <trkpt lat="43.7017" lon="2.09707">
        <ele>340</ele>
        <time>2019-10-16T14:27:24+02:00</time>
      </trkpt>
      <trkpt lat="43.70149" lon="2.09732">
        <ele>340</ele>
        <time>2019-10-16T14:27:56+02:00</time>
      </trkpt>
      <trkpt lat="43.70126" lon="2.09755">
        <ele>341</ele>
        <time>2019-10-16T14:28:31+02:00</time>
      </trkpt>
      <trkpt lat="43.70102" lon="2.09773">
        <ele>341</ele>
        <time>2019-10-16T14:28:59+02:00</time>
      </trkpt>
      <trkpt lat="43.70078" lon="2.0979">
        <ele>341</ele>
        <time>2019-10-16T14:29:40+02:00</time>
      </trkpt>
      <trkpt lat="43.70057" lon="2.09814">
        <ele>342</ele>
        <time>2019-10-16T14:30:01+02:00</time>
      </trkpt>
      <trkpt lat="43.70032" lon="2.09832">
        <ele>342</ele>
        <time>2019-10-16T14:30:36+02:00</time>
      </trkpt>
      <trkpt lat="43.70007" lon="2.09846">
        <ele>342</ele>
        <time>2019-10-16T14:31:01+02:00</time>
      </trkpt>
      <trkpt lat="43.6998" lon="2.09849">
        <ele>342</ele>
        <time>2019-10-16T14:31:30+02:00</time>
      </trkpt>
      <trkpt lat="43.69952" lon="2.09853">
        <ele>343</ele>
        <time>2019-10-16T14:31:55+02:00</time>
      </trkpt>
      <trkpt lat="43.69925" lon="2.09848">
        <ele>343</ele>
        <time>2019-10-16T14:32:18+02:00</time>
      </trkpt>
      <trkpt lat="43.69898" lon="2.09854">
        <ele>343</ele>
        <time>2019-10-16T14:32:39+02:00</time>
      </trkpt>
      <trkpt lat="43.69873" lon="2.09867">
        <ele>344</ele>
        <time>2019-10-16T14:33:14+02:00</time>
      </trkpt>
      <trkpt lat="43.699" lon="2.09875">
        <ele>344</ele>
        <time>2019-10-16T14:34:04+02:00</time>
      </trkpt>
      <trkpt lat="43.69919" lon="2.09903">
        <ele>344</ele>
        <time>2019-10-16T14:34:23+02:00</time>
      </trkpt>
      <trkpt lat="43.69938" lon="2.09931">
        <ele>344</ele>
        <time>2019-10-16T14:34:44+02:00</time>
      </trkpt>
      <trkpt lat="43.69963" lon="2.09948">
        <ele>343</ele>
        <time>2019-10-16T14:35:04+02:00</time>
      </trkpt>
      <trkpt lat="43.69989" lon="2.09963">
        <ele>343</ele>
        <time>2019-10-16T14:35:25+02:00</time>
      </trkpt>
      <trkpt lat="43.69964" lon="2.09947">
        <ele>342</ele>
        <time>2019-10-16T14:37:19+02:00</time>
      </trkpt>
      <trkpt lat="43.69938" lon="2.0993">
        <ele>341</ele>
        <time>2019-10-16T14:37:40+02:00</time>
      </trkpt>
      <trkpt lat="43.6992" lon="2.09902">
        <ele>341</ele>
        <time>2019-10-16T14:38:04+02:00</time>
      </trkpt>
      <trkpt lat="43.69901" lon="2.09874">
        <ele>341</ele>
        <time>2019-10-16T14:38:27+02:00</time>
      </trkpt>
      <trkpt lat="43.69874" lon="2.09865">
        <ele>341</ele>
        <time>2019-10-16T14:38:51+02:00</time>
      </trkpt>
      <trkpt lat="43.69847" lon="2.09877">
        <ele>341</ele>
        <time>2019-10-16T14:40:14+02:00</time>
      </trkpt>
      <trkpt lat="43.69824" lon="2.09896">
        <ele>341</ele>
        <time>2019-10-16T14:40:39+02:00</time>
      </trkpt>
      <trkpt lat="43.69802" lon="2.09922">
        <ele>342</ele>
        <time>2019-10-16T14:41:08+02:00</time>
      </trkpt>
      <trkpt lat="43.6978" lon="2.09945">
        <ele>342</ele>
        <time>2019-10-16T14:41:28+02:00</time>
      </trkpt>
      <trkpt lat="43.69762" lon="2.09975">
        <ele>342</ele>
        <time>2019-10-16T14:41:56+02:00</time>
      </trkpt>
      <trkpt lat="43.6974" lon="2.09999">
        <ele>342</ele>
        <time>2019-10-16T14:42:17+02:00</time>
      </trkpt>
      <trkpt lat="43.69718" lon="2.1002">
        <ele>342</ele>
        <time>2019-10-16T14:42:39+02:00</time>
      </trkpt>
      <trkpt lat="43.69691" lon="2.10033">
        <ele>342</ele>
        <time>2019-10-16T14:42:59+02:00</time>
      </trkpt>
      <trkpt lat="43.69665" lon="2.10045">
        <ele>343</ele>
        <time>2019-10-16T14:43:22+02:00</time>
      </trkpt>
      <trkpt lat="43.69642" lon="2.10022">
        <ele>343</ele>
        <time>2019-10-16T14:43:55+02:00</time>
      </trkpt>
      <trkpt lat="43.69649" lon="2.09984">
        <ele>343</ele>
        <time>2019-10-16T14:44:19+02:00</time>
      </trkpt>
      <trkpt lat="43.69644" lon="2.09948">
        <ele>343</ele>
        <time>2019-10-16T14:44:46+02:00</time>
      </trkpt>
      <trkpt lat="43.69639" lon="2.09911">
        <ele>343</ele>
        <time>2019-10-16T14:45:13+02:00</time>
      </trkpt>
      <trkpt lat="43.69625" lon="2.09878">
        <ele>343</ele>
        <time>2019-10-16T14:46:01+02:00</time>
      </trkpt>
      <trkpt lat="43.69598" lon="2.09867">
        <ele>343</ele>
        <time>2019-10-16T14:46:42+02:00</time>
      </trkpt>
      <trkpt lat="43.69576" lon="2.09889">
        <ele>343</ele>
        <time>2019-10-16T14:47:02+02:00</time>
      </trkpt>
      <trkpt lat="43.69552" lon="2.09909">
        <ele>343</ele>
        <time>2019-10-16T14:47:23+02:00</time>
      </trkpt>
      <trkpt lat="43.69525" lon="2.09921">
        <ele>343</ele>
        <time>2019-10-16T14:47:46+02:00</time>
      </trkpt>
      <trkpt lat="43.69498" lon="2.09929">
        <ele>342</ele>
        <time>2019-10-16T14:48:10+02:00</time>
      </trkpt>
      <trkpt lat="43.69472" lon="2.09942">
        <ele>342</ele>
        <time>2019-10-16T14:48:40+02:00</time>
      </trkpt>
      <trkpt lat="43.69449" lon="2.09963">
        <ele>342</ele>
        <time>2019-10-16T14:49:09+02:00</time>
      </trkpt>
      <trkpt lat="43.69425" lon="2.0998">
        <ele>342</ele>
        <time>2019-10-16T14:49:30+02:00</time>
      </trkpt>
      <trkpt lat="43.69402" lon="2.10002">
        <ele>342</ele>
        <time>2019-10-16T14:49:49+02:00</time>
      </trkpt>
      <trkpt lat="43.69381" lon="2.10028">
        <ele>342</ele>
        <time>2019-10-16T14:50:12+02:00</time>
      </trkpt>
      <trkpt lat="43.69359" lon="2.10051">
        <ele>341</ele>
        <time>2019-10-16T14:50:39+02:00</time>
      </trkpt>
      <trkpt lat="43.69337" lon="2.10072">
        <ele>341</ele>
        <time>2019-10-16T14:51:13+02:00</time>
      </trkpt>
      <trkpt lat="43.69316" lon="2.10096">
        <ele>341</ele>
        <time>2019-10-16T14:51:45+02:00</time>
      </trkpt>
      <trkpt lat="43.69292" lon="2.10115">
        <ele>341</ele>
        <time>2019-10-16T14:52:06+02:00</time>
      </trkpt>
      <trkpt lat="43.69266" lon="2.1013">
        <ele>341</ele>
        <time>2019-10-16T14:52:42+02:00</time>
      </trkpt>
      <trkpt lat="43.69251" lon="2.10161">
        <ele>340</ele>
        <time>2019-10-16T14:53:28+02:00</time>
      </trkpt>
      <trkpt lat="43.69242" lon="2.10197">
        <ele>340</ele>
        <time>2019-10-16T14:53:50+02:00</time>
      </trkpt>
      <trkpt lat="43.69235" lon="2.10234">
        <ele>340</ele>
        <time>2019-10-16T14:54:15+02:00</time>
      </trkpt>
      <trkpt lat="43.69231" lon="2.10271">
        <ele>339</ele>
        <time>2019-10-16T14:54:39+02:00</time>
      </trkpt>
      <trkpt lat="43.69226" lon="2.10309">
        <ele>338</ele>
        <time>2019-10-16T14:55:03+02:00</time>
      </trkpt>
      <trkpt lat="43.69219" lon="2.10345">
        <ele>338</ele>
        <time>2019-10-16T14:55:25+02:00</time>
      </trkpt>
      <trkpt lat="43.69209" lon="2.10381">
        <ele>337</ele>
        <time>2019-10-16T14:55:49+02:00</time>
      </trkpt>
      <trkpt lat="43.69195" lon="2.10414">
        <ele>337</ele>
        <time>2019-10-16T14:56:09+02:00</time>
      </trkpt>
      <trkpt lat="43.69193" lon="2.10454">
        <ele>336</ele>
        <time>2019-10-16T14:56:36+02:00</time>
      </trkpt>
      <trkpt lat="43.69196" lon="2.10492">
        <ele>336</ele>
        <time>2019-10-16T14:57:04+02:00</time>
      </trkpt>
      <trkpt lat="43.69192" lon="2.1053">
        <ele>335</ele>
        <time>2019-10-16T14:57:26+02:00</time>
      </trkpt>
      <trkpt lat="43.69196" lon="2.10567">
        <ele>334</ele>
        <time>2019-10-16T14:57:46+02:00</time>
      </trkpt>
      <trkpt lat="43.69205" lon="2.10603">
        <ele>334</ele>
        <time>2019-10-16T14:58:10+02:00</time>
      </trkpt>
      <trkpt lat="43.69212" lon="2.10641">
        <ele>333</ele>
        <time>2019-10-16T14:58:33+02:00</time>
      </trkpt>
      <trkpt lat="43.69218" lon="2.10677">
        <ele>333</ele>
        <time>2019-10-16T14:58:56+02:00</time>
      </trkpt>
      <trkpt lat="43.69223" lon="2.10714">
        <ele>332</ele>
        <time>2019-10-16T14:59:18+02:00</time>
      </trkpt>
      <trkpt lat="43.69223" lon="2.10754">
        <ele>332</ele>
        <time>2019-10-16T14:59:44+02:00</time>
      </trkpt>
      <trkpt lat="43.69229" lon="2.1079">
        <ele>332</ele>
        <time>2019-10-16T14:59:58+02:00</time>
      </trkpt>
      <trkpt lat="43.69237" lon="2.10827">
        <ele>331</ele>
        <time>2019-10-16T15:00:19+02:00</time>
      </trkpt>
      <trkpt lat="43.69249" lon="2.10861">
        <ele>330</ele>
        <time>2019-10-16T15:00:43+02:00</time>
      </trkpt>
      <trkpt lat="43.69263" lon="2.10894">
        <ele>329</ele>
        <time>2019-10-16T15:01:06+02:00</time>
      </trkpt>
      <trkpt lat="43.69279" lon="2.10925">
        <ele>329</ele>
        <time>2019-10-16T15:01:29+02:00</time>
      </trkpt>
      <trkpt lat="43.69305" lon="2.10941">
        <ele>324</ele>
        <time>2019-10-16T15:07:24+02:00</time>
      </trkpt>
      <trkpt lat="43.69316" lon="2.10976">
        <ele>323</ele>
        <time>2019-10-16T15:07:43+02:00</time>
      </trkpt>
      <trkpt lat="43.69328" lon="2.1101">
        <ele>322</ele>
        <time>2019-10-16T15:08:14+02:00</time>
      </trkpt>
      <trkpt lat="43.69345" lon="2.11039">
        <ele>322</ele>
        <time>2019-10-16T15:08:33+02:00</time>
      </trkpt>
      <trkpt lat="43.69363" lon="2.11068">
        <ele>321</ele>
        <time>2019-10-16T15:09:00+02:00</time>
      </trkpt>
      <trkpt lat="43.69379" lon="2.11103">
        <ele>320</ele>
        <time>2019-10-16T15:09:26+02:00</time>
      </trkpt>
      <trkpt lat="43.69396" lon="2.11131">
        <ele>320</ele>
        <time>2019-10-16T15:10:02+02:00</time>
      </trkpt>
      <trkpt lat="43.69424" lon="2.11128">
        <ele>319</ele>
        <time>2019-10-16T15:10:25+02:00</time>
      </trkpt>
      <trkpt lat="43.69451" lon="2.11121">
        <ele>319</ele>
        <time>2019-10-16T15:10:51+02:00</time>
      </trkpt>
      <trkpt lat="43.69478" lon="2.11116">
        <ele>318</ele>
        <time>2019-10-16T15:11:13+02:00</time>
      </trkpt>
      <trkpt lat="43.69504" lon="2.11132">
        <ele>316</ele>
        <time>2019-10-16T15:12:47+02:00</time>
      </trkpt>
      <trkpt lat="43.69528" lon="2.11152">
        <ele>313</ele>
        <time>2019-10-16T15:13:27+02:00</time>
      </trkpt>
      <trkpt lat="43.69553" lon="2.11166">
        <ele>312</ele>
        <time>2019-10-16T15:14:12+02:00</time>
      </trkpt>
      <trkpt lat="43.69575" lon="2.11144">
        <ele>311</ele>
        <time>2019-10-16T15:14:36+02:00</time>
      </trkpt>
      <trkpt lat="43.69602" lon="2.11135">
        <ele>311</ele>
        <time>2019-10-16T15:14:53+02:00</time>
      </trkpt>
      <trkpt lat="43.69626" lon="2.11154">
        <ele>310</ele>
        <time>2019-10-16T15:15:19+02:00</time>
      </trkpt>
      <trkpt lat="43.69637" lon="2.11189">
        <ele>309</ele>
        <time>2019-10-16T15:15:43+02:00</time>
      </trkpt>
      <trkpt lat="43.69643" lon="2.11225">
        <ele>308</ele>
        <time>2019-10-16T15:16:25+02:00</time>
      </trkpt>
      <trkpt lat="43.69649" lon="2.11262">
        <ele>307</ele>
        <time>2019-10-16T15:17:00+02:00</time>
      </trkpt>
      <trkpt lat="43.69675" lon="2.11247">
        <ele>307</ele>
        <time>2019-10-16T15:17:24+02:00</time>
      </trkpt>
      <trkpt lat="43.69702" lon="2.11249">
        <ele>306</ele>
        <time>2019-10-16T15:18:35+02:00</time>
      </trkpt>
      <trkpt lat="43.69728" lon="2.11236">
        <ele>305</ele>
        <time>2019-10-16T15:19:20+02:00</time>
      </trkpt>
      <trkpt lat="43.69755" lon="2.11228">
        <ele>305</ele>
        <time>2019-10-16T15:20:01+02:00</time>
      </trkpt>
      <trkpt lat="43.6978" lon="2.11214">
        <ele>305</ele>
        <time>2019-10-16T15:20:27+02:00</time>
      </trkpt>
      <trkpt lat="43.69805" lon="2.112">
        <ele>305</ele>
        <time>2019-10-16T15:20:58+02:00</time>
      </trkpt>
      <trkpt lat="43.6983" lon="2.11185">
        <ele>305</ele>
        <time>2019-10-16T15:21:28+02:00</time>
      </trkpt>
      <trkpt lat="43.69856" lon="2.11169">
        <ele>305</ele>
        <time>2019-10-16T15:22:06+02:00</time>
      </trkpt>
      <trkpt lat="43.6988" lon="2.11153">
        <ele>305</ele>
        <time>2019-10-16T15:22:30+02:00</time>
      </trkpt>
      <trkpt lat="43.69905" lon="2.11137">
        <ele>305</ele>
        <time>2019-10-16T15:23:03+02:00</time>
      </trkpt>
      <trkpt lat="43.69933" lon="2.11141">
        <ele>306</ele>
        <time>2019-10-16T15:23:48+02:00</time>
      </trkpt>
      <trkpt lat="43.69959" lon="2.11151">
        <ele>306</ele>
        <time>2019-10-16T15:24:21+02:00</time>
      </trkpt>
      <trkpt lat="43.69986" lon="2.11159">
        <ele>307</ele>
        <time>2019-10-16T15:24:57+02:00</time>
      </trkpt>
      <trkpt lat="43.70008" lon="2.1118">
        <ele>308</ele>
        <time>2019-10-16T15:25:39+02:00</time>
      </trkpt>
      <trkpt lat="43.70004" lon="2.11217">
        <ele>309</ele>
        <time>2019-10-16T15:26:09+02:00</time>
      </trkpt>
      <trkpt lat="43.70001" lon="2.11256">
        <ele>310</ele>
        <time>2019-10-16T15:26:42+02:00</time>
      </trkpt>
      <trkpt lat="43.69997" lon="2.11296">
        <ele>312</ele>
        <time>2019-10-16T15:27:21+02:00</time>
      </trkpt>
      <trkpt lat="43.69992" lon="2.11333">
        <ele>314</ele>
        <time>2019-10-16T15:27:54+02:00</time>
      </trkpt>
      <trkpt lat="43.69993" lon="2.11371">
        <ele>316</ele>
        <time>2019-10-16T15:28:20+02:00</time>
      </trkpt>
      <trkpt lat="43.70011" lon="2.11401">
        <ele>319</ele>
        <time>2019-10-16T15:29:10+02:00</time>
      </trkpt>
      <trkpt lat="43.70015" lon="2.11438">
        <ele>322</ele>
        <time>2019-10-16T15:29:45+02:00</time>
      </trkpt>
      <trkpt lat="43.70029" lon="2.11473">
        <ele>326</ele>
        <time>2019-10-16T15:30:33+02:00</time>
      </trkpt>
      <trkpt lat="43.70049" lon="2.11501">
        <ele>329</ele>
        <time>2019-10-16T15:31:03+02:00</time>
      </trkpt>
      <trkpt lat="43.70067" lon="2.1153">
        <ele>335</ele>
        <time>2019-10-16T15:31:44+02:00</time>
      </trkpt>
      <trkpt lat="43.70091" lon="2.11547">
        <ele>345</ele>
        <time>2019-10-16T15:33:19+02:00</time>
      </trkpt>
      <trkpt lat="43.70111" lon="2.11574">
        <ele>348</ele>
        <time>2019-10-16T15:33:43+02:00</time>
      </trkpt>
      <trkpt lat="43.70134" lon="2.11595">
        <ele>351</ele>
        <time>2019-10-16T15:34:16+02:00</time>
      </trkpt>
      <trkpt lat="43.70156" lon="2.11617">
        <ele>352</ele>
        <time>2019-10-16T15:34:48+02:00</time>
      </trkpt>
      <trkpt lat="43.70175" lon="2.11646">
        <ele>353</ele>
        <time>2019-10-16T15:35:24+02:00</time>
      </trkpt>
      <trkpt lat="43.70186" lon="2.11681">
        <ele>353</ele>
        <time>2019-10-16T15:35:47+02:00</time>
      </trkpt>
      <trkpt lat="43.70192" lon="2.11718">
        <ele>352</ele>
        <time>2019-10-16T15:36:25+02:00</time>
      </trkpt>
      <trkpt lat="43.70219" lon="2.11722">
        <ele>351</ele>
        <time>2019-10-16T15:36:55+02:00</time>
      </trkpt>
      <trkpt lat="43.70215" lon="2.1176">
        <ele>349</ele>
        <time>2019-10-16T15:37:26+02:00</time>
      </trkpt>
      <trkpt lat="43.70216" lon="2.11798">
        <ele>348</ele>
        <time>2019-10-16T15:37:47+02:00</time>
      </trkpt>
      <trkpt lat="43.70223" lon="2.11837">
        <ele>346</ele>
        <time>2019-10-16T15:38:14+02:00</time>
      </trkpt>
      <trkpt lat="43.70221" lon="2.11876">
        <ele>344</ele>
        <time>2019-10-16T15:38:42+02:00</time>
      </trkpt>
      <trkpt lat="43.70196" lon="2.11897">
        <ele>343</ele>
        <time>2019-10-16T15:39:02+02:00</time>
      </trkpt>
      <trkpt lat="43.70187" lon="2.11932">
        <ele>335</ele>
        <time>2019-10-16T15:41:58+02:00</time>
      </trkpt>
      <trkpt lat="43.70173" lon="2.11965">
        <ele>333</ele>
        <time>2019-10-16T15:42:30+02:00</time>
      </trkpt>
      <trkpt lat="43.70159" lon="2.11997">
        <ele>332</ele>
        <time>2019-10-16T15:43:01+02:00</time>
      </trkpt>
      <trkpt lat="43.70144" lon="2.12029">
        <ele>331</ele>
        <time>2019-10-16T15:43:33+02:00</time>
      </trkpt>
      <trkpt lat="43.70143" lon="2.12067">
        <ele>330</ele>
        <time>2019-10-16T15:44:09+02:00</time>
      </trkpt>
      <trkpt lat="43.70148" lon="2.12105">
        <ele>326</ele>
        <time>2019-10-16T15:45:30+02:00</time>
      </trkpt>
      <trkpt lat="43.70157" lon="2.12141">
        <ele>321</ele>
        <time>2019-10-16T15:45:55+02:00</time>
      </trkpt>
      <trkpt lat="43.70164" lon="2.12177">
        <ele>317</ele>
        <time>2019-10-16T15:46:20+02:00</time>
      </trkpt>
      <trkpt lat="43.70174" lon="2.12213">
        <ele>312</ele>
        <time>2019-10-16T15:46:52+02:00</time>
      </trkpt>
      <trkpt lat="43.70179" lon="2.1225">
        <ele>309</ele>
        <time>2019-10-16T15:47:19+02:00</time>
      </trkpt>
      <trkpt lat="43.70182" lon="2.12287">
        <ele>306</ele>
        <time>2019-10-16T15:47:47+02:00</time>
      </trkpt>
      <trkpt lat="43.70191" lon="2.12323">
        <ele>302</ele>
        <time>2019-10-16T15:48:24+02:00</time>
      </trkpt>
      <trkpt lat="43.70195" lon="2.12361">
        <ele>301</ele>
        <time>2019-10-16T15:48:45+02:00</time>
      </trkpt>
      <trkpt lat="43.70198" lon="2.12398">
        <ele>299</ele>
        <time>2019-10-16T15:49:07+02:00</time>
      </trkpt>
      <trkpt lat="43.70203" lon="2.12435">
        <ele>298</ele>
        <time>2019-10-16T15:49:34+02:00</time>
      </trkpt>
      <trkpt lat="43.70217" lon="2.12469">
        <ele>297</ele>
        <time>2019-10-16T15:49:57+02:00</time>
      </trkpt>
      <trkpt lat="43.70219" lon="2.12507">
        <ele>295</ele>
        <time>2019-10-16T15:50:21+02:00</time>
      </trkpt>
      <trkpt lat="43.70216" lon="2.12544">
        <ele>294</ele>
        <time>2019-10-16T15:50:41+02:00</time>
      </trkpt>
      <trkpt lat="43.70209" lon="2.12582">
        <ele>293</ele>
        <time>2019-10-16T15:51:06+02:00</time>
      </trkpt>
      <trkpt lat="43.70209" lon="2.1262">
        <ele>292</ele>
        <time>2019-10-16T15:51:29+02:00</time>
      </trkpt>
      <trkpt lat="43.70205" lon="2.12657">
        <ele>291</ele>
        <time>2019-10-16T15:51:51+02:00</time>
      </trkpt>
      <trkpt lat="43.70227" lon="2.1268">
        <ele>291</ele>
        <time>2019-10-16T15:52:13+02:00</time>
      </trkpt>
      <trkpt lat="43.70249" lon="2.12703">
        <ele>290</ele>
        <time>2019-10-16T15:52:36+02:00</time>
      </trkpt>
      <trkpt lat="43.70273" lon="2.1272">
        <ele>290</ele>
        <time>2019-10-16T15:53:01+02:00</time>
      </trkpt>
      <trkpt lat="43.703" lon="2.12734">
        <ele>290</ele>
        <time>2019-10-16T15:53:28+02:00</time>
      </trkpt>
      <trkpt lat="43.70311" lon="2.12768">
        <ele>291</ele>
        <time>2019-10-16T15:54:02+02:00</time>
      </trkpt>
      <trkpt lat="43.70305" lon="2.12804">
        <ele>291</ele>
        <time>2019-10-16T15:54:26+02:00</time>
      </trkpt>
      <trkpt lat="43.70303" lon="2.12843">
        <ele>291</ele>
        <time>2019-10-16T15:54:49+02:00</time>
      </trkpt>
      <trkpt lat="43.70304" lon="2.12881">
        <ele>291</ele>
        <time>2019-10-16T15:55:14+02:00</time>
      </trkpt>
      <trkpt lat="43.70306" lon="2.12918">
        <ele>291</ele>
        <time>2019-10-16T15:55:37+02:00</time>
      </trkpt>
      <trkpt lat="43.70307" lon="2.12956">
        <ele>291</ele>
        <time>2019-10-16T15:55:58+02:00</time>
      </trkpt>
      <trkpt lat="43.70316" lon="2.12993">
        <ele>291</ele>
        <time>2019-10-16T15:56:32+02:00</time>
      </trkpt>
      <trkpt lat="43.70323" lon="2.1303">
        <ele>290</ele>
        <time>2019-10-16T15:56:57+02:00</time>
      </trkpt>
      <trkpt lat="43.7033" lon="2.13066">
        <ele>290</ele>
        <time>2019-10-16T15:57:21+02:00</time>
      </trkpt>
      <trkpt lat="43.70341" lon="2.131">
        <ele>290</ele>
        <time>2019-10-16T15:57:41+02:00</time>
      </trkpt>
      <trkpt lat="43.70345" lon="2.13138">
        <ele>290</ele>
        <time>2019-10-16T15:58:04+02:00</time>
      </trkpt>
      <trkpt lat="43.70346" lon="2.13175">
        <ele>289</ele>
        <time>2019-10-16T15:58:32+02:00</time>
      </trkpt>
      <trkpt lat="43.70349" lon="2.13213">
        <ele>289</ele>
        <time>2019-10-16T15:58:57+02:00</time>
      </trkpt>
      <trkpt lat="43.70347" lon="2.13253">
        <ele>289</ele>
        <time>2019-10-16T15:59:23+02:00</time>
      </trkpt>
      <trkpt lat="43.70342" lon="2.1329">
        <ele>288</ele>
        <time>2019-10-16T15:59:46+02:00</time>
      </trkpt>
      <trkpt lat="43.70343" lon="2.13328">
        <ele>288</ele>
        <time>2019-10-16T16:00:18+02:00</time>
      </trkpt>
      <trkpt lat="43.7034" lon="2.13367">
        <ele>288</ele>
        <time>2019-10-16T16:00:42+02:00</time>
      </trkpt>
      <trkpt lat="43.70335" lon="2.13404">
        <ele>288</ele>
        <time>2019-10-16T16:01:03+02:00</time>
      </trkpt>
      <trkpt lat="43.70335" lon="2.13442">
        <ele>288</ele>
        <time>2019-10-16T16:01:29+02:00</time>
      </trkpt>
      <trkpt lat="43.70342" lon="2.13479">
        <ele>288</ele>
        <time>2019-10-16T16:01:53+02:00</time>
      </trkpt>
      <trkpt lat="43.70349" lon="2.13515">
        <ele>289</ele>
        <time>2019-10-16T16:02:22+02:00</time>
      </trkpt>
      <trkpt lat="43.70375" lon="2.13531">
        <ele>289</ele>
        <time>2019-10-16T16:02:40+02:00</time>
      </trkpt>
      <trkpt lat="43.70392" lon="2.1356">
        <ele>289</ele>
        <time>2019-10-16T16:03:10+02:00</time>
      </trkpt>
      <trkpt lat="43.70369" lon="2.1358">
        <ele>290</ele>
        <time>2019-10-16T16:04:51+02:00</time>
      </trkpt>
      <trkpt lat="43.70353" lon="2.13611">
        <ele>293</ele>
        <time>2019-10-16T16:08:10+02:00</time>
      </trkpt>
      <trkpt lat="43.70338" lon="2.13643">
        <ele>294</ele>
        <time>2019-10-16T16:08:35+02:00</time>
      </trkpt>
      <trkpt lat="43.70322" lon="2.13675">
        <ele>295</ele>
        <time>2019-10-16T16:09:02+02:00</time>
      </trkpt>
      <trkpt lat="43.70319" lon="2.13713">
        <ele>296</ele>
        <time>2019-10-16T16:09:32+02:00</time>
      </trkpt>
      <trkpt lat="43.70312" lon="2.1375">
        <ele>296</ele>
        <time>2019-10-16T16:09:59+02:00</time>
      </trkpt>
      <trkpt lat="43.70324" lon="2.13784">
        <ele>297</ele>
        <time>2019-10-16T16:10:29+02:00</time>
      </trkpt>
      <trkpt lat="43.70332" lon="2.13821">
        <ele>299</ele>
        <time>2019-10-16T16:11:00+02:00</time>
      </trkpt>
      <trkpt lat="43.70334" lon="2.13858">
        <ele>300</ele>
        <time>2019-10-16T16:11:24+02:00</time>
      </trkpt>
      <trkpt lat="43.70339" lon="2.13896">
        <ele>301</ele>
        <time>2019-10-16T16:11:57+02:00</time>
      </trkpt>
      <trkpt lat="43.70359" lon="2.13921">
        <ele>301</ele>
        <time>2019-10-16T16:12:33+02:00</time>
      </trkpt>
      <trkpt lat="43.70373" lon="2.13954">
        <ele>302</ele>
        <time>2019-10-16T16:13:01+02:00</time>
      </trkpt>
      <trkpt lat="43.70387" lon="2.13987">
        <ele>303</ele>
        <time>2019-10-16T16:13:31+02:00</time>
      </trkpt>
      <trkpt lat="43.70414" lon="2.13999">
        <ele>304</ele>
        <time>2019-10-16T16:13:58+02:00</time>
      </trkpt>
      <trkpt lat="43.70441" lon="2.14007">
        <ele>306</ele>
        <time>2019-10-16T16:14:26+02:00</time>
      </trkpt>
    </trkseg>
  </trk>
</gpx>